createdAt,value
2017-11-19T00:00:28.341Z,99.99
2017-11-19T00:01:40.876Z,99.99
2017-11-19T00:02:53.842Z,99.99
2017-11-19T00:04:06.849Z,99.99
2017-11-19T00:05:19.381Z,99.99
2017-11-19T00:06:31.943Z,99.99
2017-11-19T00:07:44.482Z,99.99
2017-11-19T00:08:56.556Z,99.99
2017-11-19T00:10:09.071Z,99.99
2017-11-19T00:11:22.062Z,99.99
2017-11-19T00:12:35.080Z,99.99
2017-11-19T00:13:48.065Z,99.99
2017-11-19T00:15:01.064Z,99.99
2017-11-19T00:16:14.086Z,99.99
2017-11-19T00:17:27.080Z,99.99
2017-11-19T00:18:40.065Z,99.99
2017-11-19T00:19:53.111Z,99.99
2017-11-19T00:21:06.134Z,99.99
2017-11-19T00:22:19.135Z,99.99
2017-11-19T00:23:31.647Z,99.99
2017-11-19T00:24:43.272Z,99.99
2017-11-19T00:25:55.748Z,99.99
2017-11-19T00:27:08.763Z,99.99
2017-11-19T00:28:21.288Z,99.99
2017-11-19T00:29:34.290Z,99.99
2017-11-19T00:30:47.276Z,99.99
2017-11-19T00:32:00.318Z,99.99
2017-11-19T00:33:12.386Z,99.99
2017-11-19T00:34:24.500Z,99.99
2017-11-19T00:35:37.501Z,99.99
2017-11-19T00:36:50.541Z,99.99
2017-11-19T00:38:03.517Z,99.99
2017-11-19T00:39:16.588Z,99.99
2017-11-19T00:40:29.620Z,99.99
2017-11-19T00:41:42.663Z,99.99
2017-11-19T00:42:55.700Z,99.99
2017-11-19T00:44:08.707Z,99.99
2017-11-19T00:45:21.760Z,99.99
2017-11-19T00:46:34.258Z,99.99
2017-11-19T00:47:46.779Z,99.99
2017-11-19T00:48:59.792Z,99.99
2017-11-19T00:50:12.860Z,99.99
2017-11-19T00:51:25.859Z,99.99
2017-11-19T00:52:38.863Z,99.99
2017-11-19T00:53:51.875Z,99.99
2017-11-19T00:55:05.116Z,99.99
2017-11-19T00:56:18.135Z,99.99
2017-11-19T00:57:31.101Z,99.99
2017-11-19T00:58:44.105Z,99.99
2017-11-19T00:59:57.112Z,99.99
2017-11-19T01:01:10.095Z,99.99
2017-11-19T01:02:22.177Z,99.99
2017-11-19T01:03:34.230Z,99.99
2017-11-19T01:04:47.241Z,99.99
2017-11-19T01:05:59.750Z,99.99
2017-11-19T01:07:12.315Z,99.99
2017-11-19T01:08:25.262Z,99.99
2017-11-19T01:09:37.551Z,99.99
2017-11-19T01:10:50.543Z,99.99
2017-11-19T01:12:03.551Z,99.99
2017-11-19T01:13:15.591Z,99.99
2017-11-19T01:14:28.175Z,99.99
2017-11-19T01:15:40.232Z,99.99
2017-11-19T01:16:53.235Z,99.99
2017-11-19T01:18:06.208Z,99.99
2017-11-19T01:19:18.776Z,99.99
2017-11-19T01:20:31.827Z,99.99
2017-11-19T01:21:44.837Z,99.99
2017-11-19T01:22:57.407Z,99.99
2017-11-19T01:24:10.666Z,99.99
2017-11-19T01:25:23.654Z,99.99
2017-11-19T01:26:36.661Z,99.99
2017-11-19T01:27:49.684Z,99.99
2017-11-19T01:29:02.687Z,99.99
2017-11-19T01:30:15.700Z,99.99
2017-11-19T01:31:28.695Z,99.99
2017-11-19T01:32:41.724Z,99.99
2017-11-19T01:33:54.736Z,99.99
2017-11-19T01:35:07.716Z,99.99
2017-11-19T01:36:20.724Z,99.99
2017-11-19T01:37:33.767Z,99.99
2017-11-19T01:38:46.780Z,99.99
2017-11-19T01:39:59.747Z,99.99
2017-11-19T01:41:12.450Z,99.99
2017-11-19T01:42:25.458Z,99.99
2017-11-19T01:43:37.967Z,99.99
2017-11-19T01:44:50.471Z,99.99
2017-11-19T01:46:03.438Z,99.99
2017-11-19T01:47:16.014Z,99.99
2017-11-19T01:48:28.991Z,99.99
2017-11-19T01:49:42.041Z,99.99
2017-11-19T01:50:55.082Z,99.99
2017-11-19T01:52:07.594Z,99.99
2017-11-19T01:53:20.603Z,99.99
2017-11-19T01:54:33.639Z,99.99
2017-11-19T01:55:46.639Z,99.99
2017-11-19T01:56:59.638Z,99.99
2017-11-19T01:58:12.604Z,99.99
2017-11-19T01:59:25.605Z,99.99
2017-11-19T02:00:39.385Z,99.99
2017-11-19T02:01:52.430Z,99.99
2017-11-19T02:03:05.459Z,99.99
2017-11-19T02:04:18.007Z,99.99
2017-11-19T02:05:30.545Z,99.99
2017-11-19T02:06:43.547Z,99.99
2017-11-19T02:07:56.540Z,99.99
2017-11-19T02:09:09.538Z,99.99
2017-11-19T02:10:22.533Z,99.99
2017-11-19T02:11:35.566Z,99.99
2017-11-19T02:12:48.601Z,99.99
2017-11-19T02:14:01.824Z,99.99
2017-11-19T02:15:14.836Z,99.99
2017-11-19T02:16:27.843Z,99.99
2017-11-19T02:17:40.391Z,99.99
2017-11-19T02:18:53.411Z,99.99
2017-11-19T02:20:05.964Z,99.99
2017-11-19T02:21:18.940Z,99.99
2017-11-19T02:22:31.454Z,99.99
2017-11-19T02:23:44.451Z,99.99
2017-11-19T02:24:56.985Z,99.99
2017-11-19T02:26:09.479Z,99.99
2017-11-19T02:27:22.493Z,99.99
2017-11-19T02:28:35.460Z,99.99
2017-11-19T02:29:48.467Z,99.99
2017-11-19T02:31:01.498Z,99.99
2017-11-19T02:32:14.044Z,99.99
2017-11-19T02:33:27.055Z,99.99
2017-11-19T02:34:40.080Z,99.99
2017-11-19T02:35:53.042Z,99.99
2017-11-19T02:37:06.060Z,99.99
2017-11-19T02:38:19.108Z,99.99
2017-11-19T02:39:31.640Z,99.99
2017-11-19T02:40:44.653Z,99.99
2017-11-19T02:41:57.645Z,99.99
2017-11-19T02:43:10.648Z,99.99
2017-11-19T02:44:23.659Z,99.99
2017-11-19T02:45:36.694Z,99.99
2017-11-19T02:46:49.707Z,99.99
2017-11-19T02:48:02.740Z,99.99
2017-11-19T02:49:15.284Z,99.99
2017-11-19T02:50:28.319Z,99.99
2017-11-19T02:51:41.322Z,99.99
2017-11-19T02:52:54.299Z,99.99
2017-11-19T02:54:07.327Z,99.99
2017-11-19T02:55:19.879Z,99.99
2017-11-19T02:56:32.862Z,99.99
2017-11-19T02:57:45.903Z,99.99
2017-11-19T02:58:58.926Z,99.99
2017-11-19T03:00:11.689Z,99.99
2017-11-19T03:01:24.714Z,99.99
2017-11-19T03:02:37.248Z,99.99
2017-11-19T03:03:49.788Z,99.99
2017-11-19T03:05:02.797Z,99.99
2017-11-19T03:06:15.776Z,99.99
2017-11-19T03:07:28.765Z,99.99
2017-11-19T03:08:41.761Z,99.99
2017-11-19T03:09:54.711Z,99.99
2017-11-19T03:11:07.696Z,99.99
2017-11-19T03:12:20.739Z,99.99
2017-11-19T03:13:33.741Z,99.99
2017-11-19T03:14:46.970Z,99.99
2017-11-19T03:15:59.987Z,99.99
2017-11-19T03:17:12.982Z,99.99
2017-11-19T03:18:25.982Z,99.99
2017-11-19T03:19:38.975Z,99.99
2017-11-19T03:20:51.571Z,99.99
2017-11-19T03:22:04.106Z,99.99
2017-11-19T03:23:16.608Z,99.99
2017-11-19T03:24:29.150Z,99.99
2017-11-19T03:25:42.185Z,99.99
2017-11-19T03:26:54.677Z,99.99
2017-11-19T03:28:07.203Z,99.99
2017-11-19T03:29:19.701Z,99.99
2017-11-19T03:30:32.747Z,99.99
2017-11-19T03:31:45.995Z,99.99
2017-11-19T03:32:59.022Z,99.99
2017-11-19T03:34:11.585Z,99.99
2017-11-19T03:35:24.137Z,99.99
2017-11-19T03:36:37.112Z,99.99
2017-11-19T03:37:50.168Z,99.99
2017-11-19T03:39:03.123Z,99.99
2017-11-19T03:40:16.143Z,99.99
2017-11-19T03:41:28.653Z,99.99
2017-11-19T03:42:41.670Z,99.99
2017-11-19T03:43:54.687Z,99.99
2017-11-19T03:45:07.683Z,99.99
2017-11-19T03:46:20.208Z,99.99
2017-11-19T03:47:33.244Z,99.99
2017-11-19T03:48:46.276Z,99.99
2017-11-19T03:49:58.784Z,99.99
2017-11-19T03:51:11.823Z,99.99
2017-11-19T03:52:24.369Z,99.99
2017-11-19T03:53:37.604Z,99.99
2017-11-19T03:54:50.788Z,99.99
2017-11-19T03:56:03.265Z,99.99
2017-11-19T03:57:15.315Z,99.99
2017-11-19T03:58:28.338Z,99.99
2017-11-19T03:59:40.863Z,99.99
2017-11-19T04:00:53.890Z,99.99
2017-11-19T04:02:06.411Z,99.99
2017-11-19T04:03:18.961Z,99.99
2017-11-19T04:04:31.987Z,99.99
2017-11-19T04:05:45.013Z,99.99
2017-11-19T04:06:58.020Z,99.99
2017-11-19T04:08:11.044Z,99.99
2017-11-19T04:09:24.006Z,99.99
2017-11-19T04:10:37.026Z,99.99
2017-11-19T04:11:50.047Z,99.99
2017-11-19T04:13:03.094Z,99.99
2017-11-19T04:14:16.157Z,99.99
2017-11-19T04:15:28.694Z,99.99
2017-11-19T04:16:41.206Z,99.99
2017-11-19T04:17:54.242Z,99.99
2017-11-19T04:19:07.464Z,99.99
2017-11-19T04:20:20.467Z,99.99
2017-11-19T04:21:33.677Z,99.99
2017-11-19T04:22:46.704Z,99.99
2017-11-19T04:23:59.715Z,99.99
2017-11-19T04:25:12.255Z,99.99
2017-11-19T04:26:25.256Z,99.99
2017-11-19T04:27:38.236Z,99.99
2017-11-19T04:28:51.277Z,99.99
2017-11-19T04:30:03.844Z,99.99
2017-11-19T04:31:16.376Z,99.99
2017-11-19T04:32:29.374Z,99.99
2017-11-19T04:33:42.405Z,99.99
2017-11-19T04:34:55.460Z,99.99
2017-11-19T04:36:07.990Z,99.99
2017-11-19T04:37:20.979Z,99.99
2017-11-19T04:38:34.005Z,99.99
2017-11-19T04:39:46.535Z,99.99
2017-11-19T04:40:59.059Z,99.99
2017-11-19T04:42:12.093Z,99.99
2017-11-19T04:43:25.053Z,99.99
2017-11-19T04:44:38.078Z,99.99
2017-11-19T04:45:51.144Z,99.99
2017-11-19T04:47:03.706Z,99.99
2017-11-19T04:48:15.774Z,99.99
2017-11-19T04:49:28.801Z,99.99
2017-11-19T04:50:41.804Z,99.99
2017-11-19T04:51:54.346Z,99.99
2017-11-19T04:53:07.367Z,99.99
2017-11-19T04:54:20.351Z,99.99
2017-11-19T04:55:32.911Z,99.99
2017-11-19T04:56:45.881Z,99.99
2017-11-19T04:57:58.388Z,99.99
2017-11-19T04:59:10.433Z,99.99
2017-11-19T05:00:23.396Z,99.99
2017-11-19T05:01:35.903Z,99.99
2017-11-19T05:02:48.906Z,99.99
2017-11-19T05:04:01.913Z,99.99
2017-11-19T05:05:15.124Z,99.99
2017-11-19T05:06:28.076Z,99.99
2017-11-19T05:07:41.068Z,99.99
2017-11-19T05:08:54.072Z,99.99
2017-11-19T05:10:07.060Z,99.99
2017-11-19T05:11:19.608Z,99.99
2017-11-19T05:12:32.127Z,99.99
2017-11-19T05:13:44.683Z,99.99
2017-11-19T05:14:57.695Z,99.99
2017-11-19T05:16:09.812Z,99.99
2017-11-19T05:17:22.824Z,99.99
2017-11-19T05:18:35.827Z,99.99
2017-11-19T05:19:48.789Z,99.99
2017-11-19T05:21:01.320Z,99.99
2017-11-19T05:22:13.863Z,99.99
2017-11-19T05:23:26.405Z,99.99
2017-11-19T05:24:39.401Z,99.99
2017-11-19T05:25:52.388Z,99.99
2017-11-19T05:27:05.382Z,99.99
2017-11-19T05:28:18.437Z,99.99
2017-11-19T05:29:30.937Z,99.99
2017-11-19T05:30:43.988Z,99.99
2017-11-19T05:31:56.469Z,99.99
2017-11-19T05:33:09.484Z,99.99
2017-11-19T05:34:22.543Z,99.99
2017-11-19T05:35:35.039Z,99.99
2017-11-19T05:36:47.568Z,99.99
2017-11-19T05:38:00.547Z,99.99
2017-11-19T05:39:13.578Z,99.99
2017-11-19T05:40:26.598Z,99.99
2017-11-19T05:41:39.624Z,99.99
2017-11-19T05:42:52.638Z,99.99
2017-11-19T05:44:05.666Z,99.99
2017-11-19T05:45:18.677Z,99.99
2017-11-19T05:46:31.691Z,99.99
2017-11-19T05:47:44.690Z,99.99
2017-11-19T05:48:57.704Z,99.99
2017-11-19T05:50:10.730Z,99.99
2017-11-19T05:51:23.747Z,99.99
2017-11-19T05:52:36.779Z,99.99
2017-11-19T05:53:49.738Z,99.99
2017-11-19T05:55:02.750Z,99.99
2017-11-19T05:56:15.300Z,99.99
2017-11-19T05:57:28.333Z,99.99
2017-11-19T05:58:40.848Z,99.99
2017-11-19T05:59:53.841Z,99.99
2017-11-19T06:01:06.862Z,99.99
2017-11-19T06:02:19.864Z,99.99
2017-11-19T06:03:32.362Z,99.99
2017-11-19T06:04:45.350Z,99.99
2017-11-19T06:05:58.343Z,99.99
2017-11-19T06:07:11.375Z,99.99
2017-11-19T06:08:24.404Z,99.99
2017-11-19T06:09:37.396Z,99.99
2017-11-19T06:10:50.392Z,99.99
2017-11-19T06:12:03.403Z,99.99
2017-11-19T06:13:16.440Z,99.99
2017-11-19T06:14:29.442Z,99.99
2017-11-19T06:15:42.509Z,99.99
2017-11-19T06:16:55.049Z,99.99
2017-11-19T06:18:08.118Z,99.99
2017-11-19T06:19:21.199Z,99.99
2017-11-19T06:20:34.272Z,99.99
2017-11-19T06:21:47.268Z,99.99
2017-11-19T06:22:59.778Z,99.99
2017-11-19T06:24:11.855Z,99.99
2017-11-19T06:25:24.830Z,99.99
2017-11-19T06:26:37.393Z,99.99
2017-11-19T06:27:50.373Z,99.99
2017-11-19T06:29:02.922Z,99.99
2017-11-19T06:30:15.893Z,99.99
2017-11-19T06:31:28.915Z,99.99
2017-11-19T06:32:41.927Z,99.99
2017-11-19T06:33:54.969Z,99.99
2017-11-19T06:35:08.002Z,99.99
2017-11-19T06:36:20.528Z,99.99
2017-11-19T06:37:33.557Z,99.99
2017-11-19T06:38:46.598Z,99.99
2017-11-19T06:39:59.633Z,99.99
2017-11-19T06:41:12.176Z,99.99
2017-11-19T06:42:25.169Z,99.99
2017-11-19T06:43:37.743Z,99.99
2017-11-19T06:44:50.759Z,99.99
2017-11-19T06:46:03.797Z,99.99
2017-11-19T06:47:16.392Z,99.99
2017-11-19T06:48:29.407Z,99.99
2017-11-19T06:49:41.940Z,99.99
2017-11-19T06:50:54.953Z,99.99
2017-11-19T06:52:08.020Z,99.99
2017-11-19T06:53:21.039Z,99.99
2017-11-19T06:54:34.041Z,99.99
2017-11-19T06:55:47.045Z,99.99
2017-11-19T06:56:59.604Z,99.99
2017-11-19T06:58:12.567Z,99.99
2017-11-19T06:59:25.555Z,99.99
2017-11-19T07:00:38.593Z,99.99
2017-11-19T07:01:51.630Z,99.99
2017-11-19T07:03:04.659Z,99.99
2017-11-19T07:04:17.217Z,99.99
2017-11-19T07:05:30.259Z,99.99
2017-11-19T07:06:43.316Z,99.99
2017-11-19T07:07:55.873Z,99.99
2017-11-19T07:09:08.876Z,99.99
2017-11-19T07:10:21.810Z,99.99
2017-11-19T07:11:34.823Z,99.99
2017-11-19T07:12:47.861Z,99.99
2017-11-19T07:14:00.422Z,99.99
2017-11-19T07:15:13.006Z,99.99
2017-11-19T07:16:26.034Z,99.99
2017-11-19T07:17:38.999Z,99.99
2017-11-19T07:18:52.003Z,99.99
2017-11-19T07:20:04.569Z,99.99
2017-11-19T07:21:17.167Z,99.99
2017-11-19T07:22:30.159Z,99.99
2017-11-19T07:23:43.153Z,99.99
2017-11-19T07:24:56.146Z,99.99
2017-11-19T07:26:09.182Z,99.99
2017-11-19T07:27:22.173Z,99.99
2017-11-19T07:28:34.225Z,99.99
2017-11-19T07:29:47.217Z,99.99
2017-11-19T07:31:00.434Z,99.99
2017-11-19T07:32:13.129Z,99.99
2017-11-19T07:33:26.132Z,99.99
2017-11-19T07:34:39.123Z,99.99
2017-11-19T07:35:51.599Z,99.99
2017-11-19T07:37:04.555Z,99.99
2017-11-19T07:38:17.757Z,99.99
2017-11-19T07:39:30.812Z,99.99
2017-11-19T07:40:43.837Z,99.99
2017-11-19T07:41:56.854Z,99.99
2017-11-19T07:43:09.369Z,99.99
2017-11-19T07:44:22.418Z,99.99
2017-11-19T07:45:35.422Z,99.99
2017-11-19T07:46:47.477Z,99.99
2017-11-19T07:48:00.512Z,99.99
2017-11-19T07:49:13.053Z,99.99
2017-11-19T07:50:25.600Z,99.99
2017-11-19T07:51:38.609Z,99.99
2017-11-19T07:52:51.656Z,99.99
2017-11-19T07:54:04.684Z,99.99
2017-11-19T07:55:17.178Z,99.99
2017-11-19T07:56:30.126Z,99.99
2017-11-19T07:57:43.148Z,99.99
2017-11-19T07:58:56.128Z,99.99
2017-11-19T08:00:09.133Z,99.99
2017-11-19T08:01:22.181Z,99.99
2017-11-19T08:02:34.710Z,99.99
2017-11-19T08:03:47.226Z,99.99
2017-11-19T08:04:59.767Z,99.99
2017-11-19T08:06:12.450Z,99.99
2017-11-19T08:07:25.452Z,99.99
2017-11-19T08:08:38.031Z,99.99
2017-11-19T08:09:51.016Z,99.99
2017-11-19T08:11:04.020Z,99.99
2017-11-19T08:12:17.301Z,99.99
2017-11-19T08:13:29.940Z,99.99
2017-11-19T08:14:42.985Z,99.99
2017-11-19T08:15:56.030Z,99.99
2017-11-19T08:17:08.577Z,99.99
2017-11-19T08:18:21.092Z,99.99
2017-11-19T08:19:34.108Z,99.99
2017-11-19T08:20:47.120Z,99.99
2017-11-19T08:22:00.151Z,99.99
2017-11-19T08:23:13.166Z,99.99
2017-11-19T08:24:26.145Z,99.99
2017-11-19T08:25:39.159Z,99.99
2017-11-19T08:26:52.183Z,99.99
2017-11-19T08:28:04.734Z,99.99
2017-11-19T08:29:17.273Z,99.99
2017-11-19T08:30:30.259Z,99.99
2017-11-19T08:31:43.026Z,99.99
2017-11-19T08:32:55.739Z,99.99
2017-11-19T08:34:08.279Z,99.99
2017-11-19T08:35:21.316Z,99.99
2017-11-19T08:36:34.310Z,99.99
2017-11-19T08:37:47.358Z,99.99
2017-11-19T08:39:00.400Z,99.99
2017-11-19T08:40:12.949Z,99.99
2017-11-19T08:41:25.978Z,99.99
2017-11-19T08:42:38.550Z,99.99
2017-11-19T08:43:51.090Z,99.99
2017-11-19T08:45:04.078Z,99.99
2017-11-19T08:46:17.102Z,99.99
2017-11-19T08:47:30.149Z,99.99
2017-11-19T08:48:43.198Z,99.99
2017-11-19T08:49:56.217Z,99.99
2017-11-19T08:51:08.707Z,99.99
2017-11-19T08:52:21.219Z,99.99
2017-11-19T08:53:34.190Z,99.99
2017-11-19T08:54:47.225Z,99.99
2017-11-19T08:56:00.207Z,99.99
2017-11-19T08:57:13.210Z,99.99
2017-11-19T08:58:25.743Z,99.99
2017-11-19T08:59:38.750Z,99.99
2017-11-19T09:00:51.786Z,99.99
2017-11-19T09:02:04.797Z,99.99
2017-11-19T09:03:17.080Z,99.99
2017-11-19T09:04:30.116Z,99.99
2017-11-19T09:05:43.101Z,99.99
2017-11-19T09:06:56.105Z,99.99
2017-11-19T09:08:08.663Z,99.99
2017-11-19T09:09:21.697Z,99.99
2017-11-19T09:10:34.253Z,99.99
2017-11-19T09:11:47.275Z,99.99
2017-11-19T09:12:59.803Z,99.99
2017-11-19T09:14:12.298Z,99.99
2017-11-19T09:15:24.818Z,99.99
2017-11-19T09:16:37.845Z,99.99
2017-11-19T09:17:50.378Z,99.99
2017-11-19T09:19:02.855Z,99.99
2017-11-19T09:20:15.810Z,99.99
2017-11-19T09:21:28.791Z,99.99
2017-11-19T09:22:41.853Z,99.99
2017-11-19T09:23:54.841Z,99.99
2017-11-19T09:25:07.882Z,99.99
2017-11-19T09:26:20.887Z,99.99
2017-11-19T09:27:34.067Z,99.99
2017-11-19T09:28:46.638Z,99.99
2017-11-19T09:29:59.150Z,99.99
2017-11-19T09:31:11.210Z,99.99
2017-11-19T09:32:24.227Z,99.99
2017-11-19T09:33:37.251Z,99.99
2017-11-19T09:34:50.277Z,99.99
2017-11-19T09:36:03.278Z,99.99
2017-11-19T09:37:16.289Z,99.99
2017-11-19T09:38:28.847Z,99.99
2017-11-19T09:39:41.383Z,99.99
2017-11-19T09:40:53.907Z,99.99
2017-11-19T09:42:06.620Z,99.99
2017-11-19T09:43:19.634Z,99.99
2017-11-19T09:44:32.597Z,99.99
2017-11-19T09:45:45.191Z,99.99
2017-11-19T09:46:58.156Z,99.99
2017-11-19T09:48:11.153Z,99.99
2017-11-19T09:49:24.161Z,99.99
2017-11-19T09:50:37.191Z,99.99
2017-11-19T09:51:50.159Z,99.99
2017-11-19T09:53:03.147Z,99.99
2017-11-19T09:54:15.636Z,99.99
2017-11-19T09:55:28.609Z,99.99
2017-11-19T09:56:41.624Z,99.99
2017-11-19T09:57:54.611Z,99.99
2017-11-19T09:59:06.903Z,99.99
2017-11-19T10:00:19.931Z,99.99
2017-11-19T10:01:32.938Z,99.99
2017-11-19T10:02:45.016Z,99.99
2017-11-19T10:03:57.948Z,99.99
2017-11-19T10:05:10.912Z,99.99
2017-11-19T10:06:23.948Z,99.99
2017-11-19T10:07:37.151Z,99.99
2017-11-19T10:08:50.156Z,99.99
2017-11-19T10:10:03.107Z,99.99
2017-11-19T10:11:15.848Z,99.99
2017-11-19T10:12:28.832Z,99.99
2017-11-19T10:13:42.049Z,99.99
2017-11-19T10:14:55.067Z,99.99
2017-11-19T10:16:07.579Z,99.99
2017-11-19T10:17:20.791Z,99.99
2017-11-19T10:18:33.831Z,99.99
2017-11-19T10:19:46.438Z,99.99
2017-11-19T10:20:59.435Z,99.99
2017-11-19T10:22:11.974Z,99.99
2017-11-19T10:23:24.992Z,99.99
2017-11-19T10:24:37.960Z,99.99
2017-11-19T10:25:50.974Z,99.99
2017-11-19T10:27:03.516Z,99.99
2017-11-19T10:28:16.489Z,99.99
2017-11-19T10:29:29.492Z,99.99
2017-11-19T10:30:42.472Z,99.99
2017-11-19T10:31:54.561Z,99.99
2017-11-19T10:33:06.602Z,99.99
2017-11-19T10:34:19.583Z,99.99
2017-11-19T10:35:32.558Z,99.99
2017-11-19T10:36:45.596Z,99.99
2017-11-19T10:37:58.586Z,99.99
2017-11-19T10:39:11.561Z,99.99
2017-11-19T10:40:23.645Z,99.99
2017-11-19T10:41:36.684Z,99.99
2017-11-19T10:42:49.223Z,99.99
2017-11-19T10:44:02.262Z,99.99
2017-11-19T10:45:15.279Z,99.99
2017-11-19T10:46:28.291Z,99.99
2017-11-19T10:47:41.310Z,99.99
2017-11-19T10:48:54.276Z,99.99
2017-11-19T10:50:06.799Z,99.99
2017-11-19T10:51:19.312Z,99.99
2017-11-19T10:52:32.359Z,99.99
2017-11-19T10:53:45.331Z,99.99
2017-11-19T10:54:57.601Z,99.99
2017-11-19T10:56:10.572Z,99.99
2017-11-19T10:57:23.813Z,99.99
2017-11-19T10:58:36.790Z,99.99
2017-11-19T10:59:49.837Z,99.99
2017-11-19T11:01:02.800Z,99.99
2017-11-19T11:02:15.309Z,99.99
2017-11-19T11:03:28.285Z,99.99
2017-11-19T11:04:41.308Z,99.99
2017-11-19T11:05:53.828Z,99.99
2017-11-19T11:07:06.794Z,99.99
2017-11-19T11:08:19.791Z,99.99
2017-11-19T11:09:31.840Z,99.99
2017-11-19T11:10:44.888Z,99.99
2017-11-19T11:11:57.873Z,99.99
2017-11-19T11:13:10.852Z,99.99
2017-11-19T11:14:23.371Z,99.99
2017-11-19T11:15:36.384Z,99.99
2017-11-19T11:16:49.401Z,99.99
2017-11-19T11:18:02.144Z,99.99
2017-11-19T11:19:15.183Z,99.99
2017-11-19T11:20:28.228Z,99.99
2017-11-19T11:21:41.226Z,99.99
2017-11-19T11:22:54.205Z,99.99
2017-11-19T11:24:06.734Z,99.99
2017-11-19T11:25:19.287Z,99.99
2017-11-19T11:26:32.285Z,99.99
2017-11-19T11:27:45.280Z,99.99
2017-11-19T11:28:57.810Z,99.99
2017-11-19T11:30:10.579Z,99.99
2017-11-19T11:31:22.628Z,99.99
2017-11-19T11:32:35.620Z,99.99
2017-11-19T11:33:48.134Z,99.99
2017-11-19T11:35:01.106Z,99.99
2017-11-19T11:36:14.089Z,99.99
2017-11-19T11:37:27.101Z,99.99
2017-11-19T11:38:39.670Z,99.99
2017-11-19T11:39:52.436Z,99.99
2017-11-19T11:41:05.479Z,99.99
2017-11-19T11:42:18.016Z,99.99
2017-11-19T11:43:31.005Z,99.99
2017-11-19T11:44:44.010Z,99.99
2017-11-19T11:45:57.015Z,99.99
2017-11-19T11:47:09.119Z,99.99
2017-11-19T11:48:22.124Z,99.99
2017-11-19T11:49:35.119Z,99.99
2017-11-19T11:50:48.126Z,99.99
2017-11-19T11:52:01.134Z,99.99
2017-11-19T11:53:14.140Z,99.99
2017-11-19T11:54:27.147Z,99.99
2017-11-19T11:55:40.122Z,99.99
2017-11-19T11:56:53.109Z,99.99
2017-11-19T11:58:05.177Z,99.99
2017-11-19T11:59:17.752Z,99.99
2017-11-19T12:00:30.233Z,99.99
2017-11-19T12:01:42.988Z,99.99
2017-11-19T12:02:55.999Z,99.99
2017-11-19T12:04:09.084Z,99.99
2017-11-19T12:05:22.071Z,99.99
2017-11-19T12:06:35.072Z,99.99
2017-11-19T12:07:48.064Z,99.99
2017-11-19T12:09:01.055Z,99.99
2017-11-19T12:10:13.603Z,99.99
2017-11-19T12:11:26.616Z,99.99
2017-11-19T12:12:39.638Z,99.99
2017-11-19T12:13:52.630Z,99.99
2017-11-19T12:15:05.172Z,99.99
2017-11-19T12:16:18.169Z,99.99
2017-11-19T12:17:30.673Z,99.99
2017-11-19T12:18:43.668Z,99.99
2017-11-19T12:19:56.190Z,99.99
2017-11-19T12:21:08.741Z,99.99
2017-11-19T12:22:21.750Z,99.99
2017-11-19T12:23:34.719Z,99.99
2017-11-19T12:24:47.197Z,99.99
2017-11-19T12:26:00.227Z,99.99
2017-11-19T12:27:13.222Z,99.99
2017-11-19T12:28:26.215Z,99.99
2017-11-19T12:29:39.259Z,99.99
2017-11-19T12:30:52.235Z,99.99
2017-11-19T12:32:05.222Z,99.99
2017-11-19T12:33:18.221Z,99.99
2017-11-19T12:34:31.179Z,99.99
2017-11-19T12:35:44.161Z,99.99
2017-11-19T12:36:56.213Z,99.99
2017-11-19T12:38:08.759Z,99.99
2017-11-19T12:39:20.840Z,99.99
2017-11-19T12:40:33.841Z,99.99
2017-11-19T12:41:46.897Z,98.63
2017-11-19T12:42:59.917Z,98.68
2017-11-19T12:44:12.215Z,99.99
2017-11-19T12:45:25.205Z,98.58
2017-11-19T12:46:38.187Z,97.52
2017-11-19T12:47:50.730Z,98.2
2017-11-19T12:49:03.751Z,99.99
2017-11-19T12:50:16.295Z,99.99
2017-11-19T12:51:29.294Z,99.99
2017-11-19T12:52:41.842Z,99.99
2017-11-19T12:53:54.803Z,99.99
2017-11-19T12:55:08.024Z,99.99
2017-11-19T12:56:21.024Z,99.99
2017-11-19T12:57:34.024Z,99.99
2017-11-19T12:58:47.049Z,99.99
2017-11-19T13:00:00.057Z,99.99
2017-11-19T13:01:12.605Z,99.99
2017-11-19T13:02:25.586Z,99.99
2017-11-19T13:03:38.122Z,99.99
2017-11-19T13:04:50.926Z,99.99
2017-11-19T13:06:03.934Z,99.99
2017-11-19T13:07:16.473Z,99.99
2017-11-19T13:08:29.008Z,99.99
2017-11-19T13:09:42.016Z,98.25
2017-11-19T13:10:55.029Z,96.17
2017-11-19T13:12:07.604Z,93.51
2017-11-19T13:13:20.563Z,93.65
2017-11-19T13:14:33.548Z,92.87
2017-11-19T13:15:46.533Z,91.66
2017-11-19T13:16:59.510Z,88.21
2017-11-19T13:18:12.027Z,84.19
2017-11-19T13:19:25.023Z,83.94
2017-11-19T13:20:38.062Z,84.03
2017-11-19T13:21:50.591Z,82.46
2017-11-19T13:23:02.675Z,76.9
2017-11-19T13:24:15.660Z,76.78
2017-11-19T13:25:28.694Z,72.47
2017-11-19T13:26:41.765Z,73.16
2017-11-19T13:27:54.740Z,75.16
2017-11-19T13:29:07.724Z,74.1
2017-11-19T13:30:20.721Z,73.77
2017-11-19T13:31:33.731Z,77.68
2017-11-19T13:32:46.746Z,79.45
2017-11-19T13:33:59.733Z,81.74
2017-11-19T13:35:12.741Z,83.25
2017-11-19T13:36:25.743Z,84.12
2017-11-19T13:37:38.731Z,83.25
2017-11-19T13:38:51.705Z,82.28
2017-11-19T13:40:04.263Z,86.02
2017-11-19T13:41:16.831Z,82.73
2017-11-19T13:42:29.368Z,84.14
2017-11-19T13:43:42.344Z,84.05
2017-11-19T13:44:55.373Z,83.07
2017-11-19T13:46:07.925Z,82.53
2017-11-19T13:47:21.159Z,81.8
2017-11-19T13:48:33.685Z,78.58
2017-11-19T13:49:46.206Z,74.57
2017-11-19T13:50:59.244Z,75.93
2017-11-19T13:52:12.283Z,74.38
2017-11-19T13:53:24.808Z,75.6
2017-11-19T13:54:37.388Z,71.66
2017-11-19T13:55:50.420Z,71.98
2017-11-19T13:57:03.474Z,72.96
2017-11-19T13:58:15.982Z,75.05
2017-11-19T13:59:29.221Z,77.35
2017-11-19T14:00:42.237Z,78.64
2017-11-19T14:01:55.275Z,81.9
2017-11-19T14:03:08.327Z,81.95
2017-11-19T14:04:21.360Z,80.69
2017-11-19T14:05:34.391Z,82.3
2017-11-19T14:06:46.945Z,81.43
2017-11-19T14:07:59.959Z,84.78
2017-11-19T14:09:12.551Z,80.36
2017-11-19T14:10:25.105Z,80.55
2017-11-19T14:11:38.106Z,80.5
2017-11-19T14:12:51.145Z,80.21
2017-11-19T14:14:03.743Z,80.75
2017-11-19T14:15:16.296Z,81.52
2017-11-19T14:16:29.316Z,81.82
2017-11-19T14:17:42.393Z,82.98
2017-11-19T14:18:55.390Z,81.2
2017-11-19T14:20:08.432Z,82.65
2017-11-19T14:21:21.394Z,82.4
2017-11-19T14:22:33.910Z,82.1
2017-11-19T14:23:46.472Z,82.88
2017-11-19T14:24:59.052Z,81.33
2017-11-19T14:26:12.098Z,81.18
2017-11-19T14:27:24.188Z,81.47
2017-11-19T14:28:37.180Z,78.94
2017-11-19T14:29:48.288Z,79.37
2017-11-19T14:31:01.311Z,76.95
2017-11-19T14:32:14.538Z,76.92
2017-11-19T14:33:27.584Z,71.66
2017-11-19T14:34:40.178Z,70.75
2017-11-19T14:35:53.192Z,66.02
2017-11-19T14:37:05.719Z,65.11
2017-11-19T14:38:18.737Z,66.24
2017-11-19T14:39:31.765Z,65.69
2017-11-19T14:40:44.754Z,67.08
2017-11-19T14:41:57.317Z,68.35
2017-11-19T14:43:10.344Z,69.91
2017-11-19T14:44:23.377Z,66.31
2017-11-19T14:45:36.374Z,68.97
2017-11-19T14:46:49.406Z,69.03
2017-11-19T14:48:01.978Z,71.11
2017-11-19T14:49:14.495Z,71.85
2017-11-19T14:50:27.537Z,71.46
2017-11-19T14:51:40.557Z,70.72
2017-11-19T14:52:53.619Z,66.99
2017-11-19T14:54:06.194Z,64.84
2017-11-19T14:55:18.758Z,65.82
2017-11-19T14:56:31.783Z,65.69
2017-11-19T14:57:44.787Z,65.59
2017-11-19T14:58:57.813Z,68.09
2017-11-19T15:00:10.823Z,64.42
2017-11-19T15:01:23.812Z,64.17
2017-11-19T15:02:36.402Z,64.94
2017-11-19T15:03:49.390Z,64.87
2017-11-19T15:05:02.385Z,63.19
2017-11-19T15:06:15.382Z,63.22
2017-11-19T15:07:28.418Z,65.14
2017-11-19T15:08:41.418Z,67.02
2017-11-19T15:09:54.434Z,68.29
2017-11-19T15:11:06.962Z,66.89
2017-11-19T15:12:19.974Z,68.05
2017-11-19T15:13:33.023Z,68.09
2017-11-19T15:14:46.062Z,66.31
2017-11-19T15:15:59.087Z,68.12
2017-11-19T15:17:12.115Z,70.71
2017-11-19T15:18:25.369Z,70.81
2017-11-19T15:19:37.893Z,71.94
2017-11-19T15:20:50.468Z,72.52
2017-11-19T15:22:03.460Z,72.97
2017-11-19T15:23:15.993Z,75.59
2017-11-19T15:24:28.520Z,73.94
2017-11-19T15:25:41.081Z,75.16
2017-11-19T15:26:54.095Z,76.14
2017-11-19T15:28:07.129Z,76.87
2017-11-19T15:29:20.158Z,76.48
2017-11-19T15:30:33.187Z,76.81
2017-11-19T15:31:46.238Z,77.2
2017-11-19T15:32:59.300Z,75.49
2017-11-19T15:34:12.296Z,75.82
2017-11-19T15:35:25.330Z,76.01
2017-11-19T15:36:38.313Z,73.97
2017-11-19T15:37:50.852Z,75.49
2017-11-19T15:39:03.879Z,77.2